Pagrindinis puslapis
METAR-TAF:

METAR-TAF

Oro uostai :

Sinop, Turkija

platuma: 42-00-57N, ilguma: 035-03-59E, Aukštis: 7 m

Dabartinis oras

Ataskaita buvo paskelbta 3 valandos ir 18 minutes, ne 17:50 UTC
Vėjas 13 kt iš Vakarų
Temperatūra 12°C
Drėgmė 82%
Slėgis 1022 hPa
Matomumas: 8000 m
Mažai debesys ne aukštis 1200 ft
Išsisklaidę debesys ne aukštis 3000 ft
Su prošvaistėmis ne aukštis 9000 ft
lietus

METAR: LTCM 151750Z 28013KT 8000 SHRA FEW012 SCT030 BKN090 12/09 Q1022

Laikas: 00:08 (21:08 UTC)

Prognozė

Ataskaita buvo paskelbta 4 valandos ir 28 minutes, ne 16:40 UTC
Prognozė galioja nuo 15 metu 18 UTC su 16 metu 03 UTC
Vėjas 14 kt iš Vakarų
Matomumas 10 km arba daugiau
Mažai debesys ne aukštis 1500 ft
Išsisklaidę debesys ne aukštis 3000 ft
Laikinai
nuo 15 metu 18 UTC su 15 metu 20 UTC
Mažai debesys ne aukštis 1500 ft
Su prošvaistėmis ne aukštis 2800 ft
lietus

TAF: LTCM 151640Z 1518/1603 28014KT 9999 FEW015 SCT030 TEMPO 1518/1520 -RA FEW015 BKN028

Orai ataskaitas ir orų prognozės (METAR, TAF).

turimą stotys yra geltonos ir raudonos taškus žemėlapyje.

Perkelti pele per norėdami pamatyti stoties vardą.

Tada spustelėkite, norėdami matyti oro stebėjimo ir prognozės.

Norėdami pakeisti žemėlapį: spustelėkite ant žalios mygtukų su juodo kryžiaus žemyn,; žalią mygtuką su brūkšneliu, jei norite nutolinti; arba žalių rodyklių gretimoms žemėlapius.


METAR-TAF: